Time;durP1;ratioP1;P1;durP2;ratioP2;P2;SDS_P1;SDS_P2;PMS_P1;PMS_P2;Temp;Humidity;BMP_temperature;BMP_pressure;BME280_temperature;BME280_humidity;BME280_pressure;Samples;Min_cycle;Max_cycle;Signal;HPM_P1;HPM_P2
2021/12/25 00:00:13;;;;;;;9.60;2.25;;;-0.30;99.90;;;;;;5094301;28;20108;-69
2021/12/25 00:02:39;;;;;;;5.22;1.20;;;;;;;;;;5113101;28;20506;-69
2021/12/25 00:05:06;;;;;;;1.70;0.60;;;-0.30;99.90;;;;;;5077306;28;20138;-70
2021/12/25 00:07:32;;;;;;;4.05;1.38;;;-0.30;99.90;;;;;;5095297;28;20051;-72
2021/12/25 00:09:58;;;;;;;5.03;0.98;;;-0.30;99.90;;;;;;5095463;28;20547;-70
2021/12/25 00:12:24;;;;;;;4.20;1.08;;;-0.30;99.90;;;;;;5075559;28;20120;-70
2021/12/25 00:14:50;;;;;;;4.38;1.20;;;0.40;99.90;;;;;;5092442;28;20040;-70
2021/12/25 00:17:16;;;;;;;5.32;0.82;;;-0.50;99.90;;;;;;5076353;28;20052;-69
2021/12/25 00:19:43;;;;;;;4.25;0.70;;;-0.50;99.90;;;;;;5080850;28;20094;-70
2021/12/25 00:22:09;;;;;;;4.40;1.23;;;-0.30;99.90;;;;;;5095842;28;20388;-70
2021/12/25 00:24:35;;;;;;;5.25;1.20;;;-0.70;99.90;;;;;;5094914;28;20035;-69
2021/12/25 00:27:08;;;;;;;4.63;1.33;;;-0.60;99.90;;;;;;5101551;28;20045;-70
2021/12/25 00:34:46;;;;;;;2.83;0.93;;;;;;;;;;5095789;28;20047;-69
2021/12/25 00:37:12;;;;;;;4.82;1.02;;;;;;;;;;5079537;28;20044;-69
2021/12/25 00:39:37;;;;;;;2.30;1.00;;;-0.70;99.90;;;;;;5095520;28;20476;-69
2021/12/25 00:42:05;;;;;;;4.90;1.00;;;-0.70;99.90;;;;;;5095342;28;20039;-69
2021/12/25 00:44:32;;;;;;;3.20;0.77;;;-0.80;99.90;;;;;;5078970;28;20043;-69
2021/12/25 00:46:58;;;;;;;4.50;1.15;;;;;;;;;;5096100;28;20043;-70
2021/12/25 00:49:24;;;;;;;2.63;0.90;;;-0.70;99.90;;;;;;5078274;28;20472;-69
2021/12/25 00:51:50;;;;;;;3.42;1.27;;;-0.90;99.90;;;;;;5094280;28;20039;-70
2021/12/25 00:54:16;;;;;;;3.17;0.90;;;-1.10;99.90;;;;;;5078689;28;20080;-69
2021/12/25 00:56:42;;;;;;;5.10;1.17;;;-0.90;99.90;;;;;;5095494;28;20437;-68
2021/12/25 00:59:08;;;;;;;3.53;1.02;;;;;;;;;;5095709;28;20051;-69
2021/12/25 01:01:35;;;;;;;3.53;1.45;;;;;;;;;;5095977;28;20036;-69
2021/12/25 01:04:00;;;;;;;3.42;0.77;;;-1.10;99.90;;;;;;5095128;28;20046;-69
2021/12/25 01:06:26;;;;;;;2.78;0.95;;;-1.20;99.90;;;;;;5095282;28;20047;-69
2021/12/25 01:08:52;;;;;;;4.07;1.08;;;-1.20;99.90;;;;;;5095346;28;20047;-69
2021/12/25 01:11:18;;;;;;;4.50;1.17;;;-1.10;99.90;;;;;;5094001;28;20126;-69
2021/12/25 01:13:50;;;;;;;4.93;1.30;;;-1.20;99.90;;;;;;5095638;28;20047;-69
2021/12/25 01:37:36;;;;;;;6.95;1.63;;;;;;;;;;5094428;28;20048;-69
2021/12/25 01:48:20;;;;;;;3.85;0.90;;;-1.40;99.90;;;;;;5094206;28;20503;-69
2021/12/25 01:50:45;;;;;;;4.68;1.65;;;-1.40;99.90;;;;;;5095535;28;20458;-68
2021/12/25 01:53:12;;;;;;;5.53;1.10;;;;;;;;;;5094325;28;20118;-69
2021/12/25 01:55:37;;;;;;;3.35;0.77;;;-1.50;99.90;;;;;;5095075;28;20052;-69
2021/12/25 01:58:04;;;;;;;4.20;0.82;;;-1.80;99.90;;;;;;5094726;28;20169;-69
2021/12/25 02:00:48;;;;;;;3.90;0.60;;;-1.70;99.90;;;;;;5094444;28;20036;-69
2021/12/25 02:03:18;;;;;;;2.17;0.90;;;-1.70;99.90;;;;;;5070352;28;20126;-68
2021/12/25 02:05:44;;;;;;;3.00;0.98;;;-1.70;99.90;;;;;;5109152;28;20032;-69
2021/12/25 02:08:10;;;;;;;2.60;0.93;;;;;;;;;;5094357;28;20088;-69
2021/12/25 02:10:36;;;;;;;2.85;0.65;;;-1.70;99.90;;;;;;5094439;28;20078;-69
2021/12/25 02:13:03;;;;;;;3.95;0.82;;;-1.70;99.90;;;;;;5093705;28;20071;-68
2021/12/25 02:15:30;;;;;;;5.72;1.10;;;-1.70;99.90;;;;;;5094748;28;20454;-69
2021/12/25 02:18:09;;;;;;;4.90;0.68;;;-1.80;99.90;;;;;;5077531;28;20047;-69
2021/12/25 02:20:45;;;;;;;3.13;1.00;;;-1.90;99.90;;;;;;5076000;28;20385;-69
2021/12/25 02:23:19;;;;;;;2.88;0.63;;;-0.60;99.90;;;;;;5074678;28;20119;-69
2021/12/25 02:25:46;;;;;;;6.70;0.80;;;-1.90;99.90;;;;;;5074379;28;20048;-69
2021/12/25 02:28:13;;;;;;;1.73;0.50;;;-1.90;99.90;;;;;;5102489;28;20472;-70
2021/12/25 02:30:41;;;;;;;1.98;0.50;;;-1.90;99.90;;;;;;5077564;28;20062;-69
2021/12/25 02:33:06;;;;;;;4.13;0.80;;;-1.90;99.90;;;;;;5094590;28;20400;-69
2021/12/25 02:35:32;;;;;;;1.10;0.47;;;-2.00;99.90;;;;;;5093163;28;20051;-69
2021/12/25 02:37:58;;;;;;;9.85;1.35;;;-2.00;99.90;;;;;;5077214;28;20139;-69
2021/12/25 02:40:24;;;;;;;2.53;0.80;;;-2.10;99.90;;;;;;5093781;28;20467;-68
2021/12/25 02:42:49;;;;;;;5.18;1.30;;;-2.10;99.90;;;;;;5093539;28;20076;-68
2021/12/25 02:45:20;;;;;;;1.35;0.40;;;-2.00;99.90;;;;;;5094252;28;20047;-69
2021/12/25 02:47:52;;;;;;;2.72;0.68;;;-2.10;99.90;;;;;;5093263;28;20624;-68
2021/12/25 02:50:26;;;;;;;2.47;0.80;;;-2.10;99.90;;;;;;5085017;28;20075;-68
2021/12/25 02:52:53;;;;;;;2.05;0.70;;;-2.10;99.90;;;;;;5094322;28;20044;-68
2021/12/25 02:55:20;;;;;;;2.05;0.45;;;-2.10;99.90;;;;;;5093204;28;20050;-68
2021/12/25 02:57:50;;;;;;;2.67;0.50;;;-2.20;99.90;;;;;;5094036;28;20063;-69
2021/12/25 03:00:41;;;;;;;2.80;0.52;;;-2.20;99.90;;;;;;5094553;28;20044;-69
2021/12/25 03:03:08;;;;;;;2.58;0.80;;;-2.10;99.90;;;;;;5092928;28;20430;-68
2021/12/25 03:05:34;;;;;;;2.83;0.63;;;-2.20;99.90;;;;;;5093726;28;20051;-69
2021/12/25 03:08:00;;;;;;;3.55;0.95;;;-2.00;99.90;;;;;;5093636;28;20054;-69
2021/12/25 03:10:26;;;;;;;1.50;0.45;;;-2.30;99.90;;;;;;5093021;28;20047;-69
2021/12/25 03:13:16;;;;;;;2.10;0.50;;;-2.20;99.90;;;;;;5094019;28;20040;-68
2021/12/25 03:15:46;;;;;;;2.88;0.50;;;-2.30;99.90;;;;;;5093765;28;20052;-69
2021/12/25 03:18:28;;;;;;;1.10;0.40;;;-2.20;99.90;;;;;;5075913;28;20492;-68
2021/12/25 03:20:58;;;;;;;1.63;0.45;;;-2.40;99.90;;;;;;5076053;28;20039;-68
2021/12/25 03:23:26;;;;;;;1.52;0.40;;;-2.40;99.90;;;;;;5093057;28;20036;-68
2021/12/25 03:25:54;;;;;;;0.30;0.17;;;-2.30;99.90;;;;;;5076994;28;20047;-69
2021/12/25 03:28:23;;;;;;;2.20;0.52;;;-2.30;99.90;;;;;;5094201;28;20181;-69
2021/12/25 03:30:49;;;;;;;2.30;0.60;;;-2.40;99.90;;;;;;5092288;28;20087;-68
2021/12/25 03:33:19;;;;;;;1.52;0.32;;;-2.40;99.90;;;;;;5095191;28;20048;-68
2021/12/25 03:35:45;;;;;;;1.45;0.50;;;-2.40;99.90;;;;;;5077685;28;20077;-69
2021/12/25 03:38:14;;;;;;;1.60;0.40;;;-2.40;99.90;;;;;;5076498;28;20048;-69
2021/12/25 03:40:41;;;;;;;2.00;0.55;;;-2.40;99.90;;;;;;5127396;27;20056;-69
2021/12/25 03:43:07;;;;;;;1.23;0.30;;;-2.40;99.90;;;;;;5097443;28;20046;-68
2021/12/25 03:45:34;;;;;;;2.65;0.50;;;-2.60;99.90;;;;;;5096751;28;20122;-68
2021/12/25 03:48:09;;;;;;;2.90;0.43;;;-2.50;99.90;;;;;;5079794;28;20092;-68
2021/12/25 03:53:36;;;;;;;2.40;0.45;;;-2.50;99.90;;;;;;5083255;28;20044;-69
2021/12/25 03:58:47;;;;;;;0.90;0.30;;;-2.50;99.90;;;;;;5093070;28;20054;-68
2021/12/25 04:06:34;;;;;;;0.22;0.17;;;-2.30;99.90;;;;;;5095589;28;20036;-69
2021/12/25 04:09:03;;;;;;;1.00;0.30;;;-2.50;99.90;;;;;;5093235;28;20127;-68
2021/12/25 04:11:32;;;;;;;1.92;0.32;;;-2.40;99.90;;;;;;5076594;28;20036;-68
2021/12/25 04:13:59;;;;;;;0.85;0.40;;;-2.60;99.90;;;;;;5075478;28;20050;-68
2021/12/25 04:16:26;;;;;;;2.33;0.60;;;-2.60;99.90;;;;;;5076989;28;20042;-68
2021/12/25 04:18:52;;;;;;;1.52;0.40;;;;;;;;;;5109604;28;20052;-69
2021/12/25 04:21:18;;;;;;;0.88;0.15;;;-2.50;99.90;;;;;;5095997;28;20061;-68
2021/12/25 04:23:44;;;;;;;1.33;0.60;;;-2.70;99.90;;;;;;5079648;28;20419;-68
2021/12/25 04:26:12;;;;;;;1.52;0.40;;;-2.70;99.90;;;;;;5095781;28;20044;-68
2021/12/25 04:28:44;;;;;;;2.78;0.30;;;-2.70;99.90;;;;;;5096670;28;20062;-69
2021/12/25 05:03:58;;;;;;;2.65;0.68;;;-2.70;99.90;;;;;;5109601;28;20043;-69
2021/12/25 05:06:24;;;;;;;2.00;0.50;;;-2.80;99.90;;;;;;5058949;28;20044;-68
2021/12/25 05:08:51;;;;;;;0.65;0.30;;;-2.90;99.90;;;;;;5074840;28;20048;-69
2021/12/25 05:11:17;;;;;;;0.43;0.13;;;-3.00;99.90;;;;;;5077081;28;20036;-69
2021/12/25 05:13:45;;;;;;;6.38;1.52;;;-2.90;99.90;;;;;;5130271;27;20441;-69
2021/12/25 05:16:11;;;;;;;20.48;5.75;;;-2.90;99.90;;;;;;5078251;28;20415;-69
2021/12/25 05:18:37;;;;;;;107.15;44.05;;;-2.90;99.90;;;;;;5095686;28;20130;-69
2021/12/25 05:21:02;;;;;;;50.30;19.90;;;-2.90;99.90;;;;;;5078416;28;20038;-69
2021/12/25 05:23:28;;;;;;;61.13;25.20;;;-2.80;99.90;;;;;;5094927;28;20357;-69
2021/12/25 05:25:54;;;;;;;29.80;12.38;;;-2.90;99.90;;;;;;5094672;28;20096;-69
2021/12/25 05:28:25;;;;;;;33.25;13.75;;;-2.90;99.90;;;;;;5108938;28;20449;-69
2021/12/25 05:30:52;;;;;;;71.60;31.17;;;-2.90;99.90;;;;;;5081494;28;20059;-69
2021/12/25 05:33:18;;;;;;;33.53;14.90;;;-2.90;99.90;;;;;;5095214;28;20149;-70
2021/12/25 05:35:45;;;;;;;19.23;10.23;;;-3.00;99.90;;;;;;5078731;28;20051;-69
2021/12/25 05:38:14;;;;;;;23.88;10.90;;;-3.10;99.90;;;;;;5094052;28;20442;-69
2021/12/25 05:40:45;;;;;;;12.13;4.57;;;-2.90;99.90;;;;;;5095539;28;20036;-69
2021/12/25 05:43:11;;;;;;;13.57;4.35;;;-3.10;99.90;;;;;;5095645;28;20043;-69
2021/12/25 05:45:37;;;;;;;8.10;3.63;;;-3.00;99.90;;;;;;5094200;28;20023;-69
2021/12/25 05:48:03;;;;;;;2.28;1.05;;;-3.00;99.90;;;;;;5094756;28;20381;-69
2021/12/25 05:50:29;;;;;;;5.95;3.35;;;-3.10;99.90;;;;;;5094177;28;20044;-69
2021/12/25 05:52:56;;;;;;;3.35;1.30;;;-3.30;99.90;;;;;;5076975;28;20361;-69
2021/12/25 05:55:22;;;;;;;4.15;0.75;;;-3.10;99.90;;;;;;5077373;28;20046;-69
2021/12/25 05:57:48;;;;;;;3.63;1.30;;;-3.00;99.90;;;;;;5076999;28;20452;-69
2021/12/25 06:00:14;;;;;;;1.83;0.57;;;-3.20;99.90;;;;;;5094610;28;20120;-69
2021/12/25 06:02:40;;;;;;;2.97;1.23;;;-3.10;99.90;;;;;;5094971;28;20058;-69
2021/12/25 06:05:07;;;;;;;5.75;1.40;;;-3.10;99.90;;;;;;5093196;28;20035;-69
2021/12/25 06:07:33;;;;;;;1.63;0.70;;;-3.10;99.90;;;;;;5094932;28;20044;-69
2021/12/25 06:10:00;;;;;;;3.28;0.70;;;-3.10;99.90;;;;;;5094681;28;20124;-69
2021/12/25 06:12:26;;;;;;;2.25;0.88;;;-3.10;99.90;;;;;;5093799;28;20039;-69
2021/12/25 06:14:54;;;;;;;3.13;0.75;;;-3.10;99.90;;;;;;5093848;28;20040;-69
2021/12/25 06:17:20;;;;;;;3.55;1.30;;;-3.20;99.90;;;;;;5093623;28;20047;-69
2021/12/25 06:19:46;;;;;;;5.05;2.15;;;-3.10;99.90;;;;;;5093660;28;20035;-69
2021/12/25 06:22:11;;;;;;;4.65;2.17;;;-3.10;99.90;;;;;;5077637;28;20047;-69
2021/12/25 06:24:40;;;;;;;2.92;1.33;;;-3.10;99.90;;;;;;5094906;28;20044;-69
2021/12/25 06:27:06;;;;;;;5.25;1.90;;;-3.10;99.90;;;;;;5093902;28;20094;-69
2021/12/25 06:29:32;;;;;;;4.40;1.65;;;-3.10;99.90;;;;;;5094168;28;20087;-70
2021/12/25 06:31:58;;;;;;;3.40;0.90;;;-3.10;99.90;;;;;;5093736;28;20057;-69
2021/12/25 06:34:24;;;;;;;4.10;1.10;;;-3.20;99.90;;;;;;5094240;28;20089;-69
2021/12/25 06:36:50;;;;;;;4.60;1.33;;;-3.10;99.90;;;;;;5094064;28;20399;-69
2021/12/25 06:39:16;;;;;;;3.70;0.75;;;-3.10;99.90;;;;;;5094251;28;20499;-69
2021/12/25 06:41:45;;;;;;;2.88;0.70;;;-3.20;99.90;;;;;;5093916;28;20039;-69
2021/12/25 06:44:10;;;;;;;1.10;0.40;;;-3.10;99.90;;;;;;5094823;28;20119;-70
2021/12/25 06:46:36;;;;;;;2.58;0.77;;;-3.00;99.90;;;;;;5069302;28;20068;-69
2021/12/25 06:49:02;;;;;;;2.53;0.90;;;-3.10;99.90;;;;;;5073227;28;20046;-69
2021/12/25 06:51:28;;;;;;;3.38;0.93;;;-3.10;99.90;;;;;;5074243;28;20044;-69
2021/12/25 06:53:54;;;;;;;2.00;0.50;;;-3.20;99.90;;;;;;5072992;28;20058;-69
2021/12/25 06:56:21;;;;;;;9.05;3.70;;;-3.20;99.90;;;;;;5074255;28;20116;-69
2021/12/25 06:58:46;;;;;;;13.68;6.30;;;-3.00;99.90;;;;;;5073813;28;20477;-69
2021/12/25 07:01:12;;;;;;;5.10;2.83;;;-3.30;99.90;;;;;;5081221;28;20028;-69
2021/12/25 07:03:38;;;;;;;6.40;4.22;;;-3.20;99.90;;;;;;5076300;28;20048;-68
2021/12/25 07:06:03;;;;;;;7.00;2.83;;;-3.50;99.90;;;;;;5094055;28;20484;-68
2021/12/25 07:08:29;;;;;;;5.50;3.15;;;-3.30;99.90;;;;;;5097168;28;20062;-68
2021/12/25 07:10:55;;;;;;;4.45;1.27;;;-3.30;99.90;;;;;;5081148;28;20048;-68
2021/12/25 07:13:20;;;;;;;4.15;1.88;;;-3.30;99.90;;;;;;5083390;28;20043;-68
2021/12/25 07:15:47;;;;;;;4.68;1.83;;;-3.40;99.90;;;;;;5080510;28;20097;-68
2021/12/25 07:18:13;;;;;;;2.63;1.23;;;-3.30;99.90;;;;;;5097749;28;20040;-69
2021/12/25 07:20:39;;;;;;;2.90;1.13;;;-2.30;99.90;;;;;;5098348;28;20490;-68
2021/12/25 07:23:05;;;;;;;4.20;1.67;;;-3.40;99.90;;;;;;5097371;28;20039;-69
2021/12/25 07:25:31;;;;;;;3.40;1.50;;;-3.40;99.90;;;;;;5080747;28;20044;-68
2021/12/25 07:27:57;;;;;;;5.35;2.85;;;;;;;;;;5097019;28;20108;-69
2021/12/25 07:30:24;;;;;;;4.70;2.30;;;;;;;;;;5088061;28;20060;-68
2021/12/25 07:32:49;;;;;;;7.05;3.85;;;-3.40;99.90;;;;;;5077252;28;20039;-68
2021/12/25 07:35:15;;;;;;;6.38;3.70;;;-3.40;99.90;;;;;;5077241;28;20040;-69
2021/12/25 07:37:41;;;;;;;5.38;2.22;;;-3.50;99.90;;;;;;5076660;28;20051;-68
2021/12/25 07:40:09;;;;;;;5.70;2.05;;;-3.40;99.90;;;;;;5093863;28;20059;-68
2021/12/25 07:42:35;;;;;;;4.20;1.45;;;-3.40;99.90;;;;;;5080302;28;20054;-68
2021/12/25 07:45:06;;;;;;;3.20;1.02;;;-3.40;99.90;;;;;;5088579;28;20446;-69
2021/12/25 07:47:39;;;;;;;4.43;1.10;;;-3.40;99.90;;;;;;5094139;28;20044;-68
2021/12/25 07:50:07;;;;;;;3.80;1.48;;;-3.40;99.90;;;;;;5087274;28;20426;-68
2021/12/25 07:52:33;;;;;;;5.30;1.75;;;-3.50;99.90;;;;;;5097082;28;20039;-67
2021/12/25 07:54:59;;;;;;;2.60;0.90;;;-3.40;99.90;;;;;;5080258;28;20042;-68
2021/12/25 07:57:25;;;;;;;6.78;1.50;;;-3.40;99.90;;;;;;5096319;28;20044;-69
2021/12/25 07:59:50;;;;;;;7.60;1.20;;;-3.40;99.90;;;;;;5094993;28;20043;-68
2021/12/25 08:02:16;;;;;;;6.25;2.72;;;-3.40;99.90;;;;;;5097209;28;20036;-68
2021/12/25 08:04:42;;;;;;;4.10;1.88;;;-3.40;99.90;;;;;;5130532;27;20035;-68
2021/12/25 08:07:08;;;;;;;3.45;1.10;;;;;;;;;;5097259;28;20082;-69
2021/12/25 08:09:35;;;;;;;3.22;1.17;;;-3.40;99.90;;;;;;5096896;28;20055;-69
2021/12/25 08:12:02;;;;;;;4.30;1.30;;;-3.40;99.90;;;;;;5096218;28;20039;-68
2021/12/25 08:14:29;;;;;;;3.42;1.10;;;-3.30;99.90;;;;;;5090324;28;20084;-68
2021/12/25 08:16:58;;;;;;;2.67;1.10;;;-3.40;99.90;;;;;;5093307;28;20485;-68
2021/12/25 08:19:24;;;;;;;4.85;1.30;;;-3.40;99.90;;;;;;5074781;28;20036;-68
2021/12/25 08:21:50;;;;;;;9.00;1.67;;;-3.40;99.90;;;;;;5077010;28;20101;-68
2021/12/25 08:24:17;;;;;;;4.30;1.48;;;-3.30;99.90;;;;;;5076642;28;20398;-68
2021/12/25 08:26:45;;;;;;;6.47;1.70;;;-3.30;99.90;;;;;;5082497;28;20035;-68
2021/12/25 08:29:11;;;;;;;4.05;1.70;;;-3.30;99.90;;;;;;5095914;28;20066;-68
2021/12/25 08:31:36;;;;;;;4.30;1.42;;;-3.30;99.90;;;;;;5079495;28;20044;-68
2021/12/25 08:34:03;;;;;;;2.90;0.63;;;-3.30;99.90;;;;;;5095648;28;20046;-68
2021/12/25 08:36:29;;;;;;;3.60;1.40;;;-3.30;99.90;;;;;;5096469;28;20039;-68
2021/12/25 08:38:55;;;;;;;4.70;1.42;;;;;;;;;;5096302;28;20047;-69
2021/12/25 08:41:25;;;;;;;8.95;1.65;;;-3.30;99.90;;;;;;5095330;28;20411;-67
2021/12/25 08:43:57;;;;;;;2.28;1.00;;;-3.30;99.90;;;;;;5078656;28;20046;-68
2021/12/25 08:46:42;;;;;;;5.00;1.10;;;-3.20;99.90;;;;;;5095494;28;20039;-67
2021/12/25 08:49:09;;;;;;;3.10;0.95;;;-3.20;99.90;;;;;;5096144;28;20119;-68
2021/12/25 08:51:35;;;;;;;14.20;5.90;;;-3.20;99.90;;;;;;5096066;28;20094;-68
2021/12/25 08:54:01;;;;;;;26.08;9.05;;;-3.20;99.90;;;;;;5095528;28;20086;-68
2021/12/25 08:56:27;;;;;;;35.40;14.43;;;-3.20;99.90;;;;;;5095286;28;20044;-68
2021/12/25 08:58:53;;;;;;;56.00;24.02;;;-3.10;99.90;;;;;;5095768;28;20081;-68
2021/12/25 09:01:19;;;;;;;19.42;10.98;;;;;;;;;;5113382;27;20032;-68
2021/12/25 09:03:44;;;;;;;8.15;4.07;;;-3.00;99.90;;;;;;5094919;28;20039;-67
2021/12/25 09:06:10;;;;;;;4.10;1.63;;;-3.00;99.90;;;;;;5096134;28;20036;-67
2021/12/25 09:08:36;;;;;;;21.52;8.43;;;-3.00;99.90;;;;;;5077762;28;20580;-67
2021/12/25 09:11:02;;;;;;;27.45;9.50;;;-3.00;99.90;;;;;;5095552;28;20047;-68
2021/12/25 09:13:28;;;;;;;9.80;3.55;;;-3.00;99.90;;;;;;5095565;28;20519;-67
2021/12/25 09:15:54;;;;;;;7.20;4.40;;;-2.90;99.90;;;;;;5080581;28;20040;-67
2021/12/25 09:18:19;;;;;;;11.00;5.30;;;-2.90;99.90;;;;;;5082721;28;20062;-68
2021/12/25 09:21:14;;;;;;;9.00;4.20;;;-2.90;99.90;;;;;;5095140;28;20434;-67
2021/12/25 09:23:39;;;;;;;5.72;2.60;;;-2.90;99.90;;;;;;5078235;28;20510;-67
2021/12/25 09:26:06;;;;;;;6.70;2.90;;;;;;;;;;5094980;28;20083;-67
2021/12/25 09:28:31;;;;;;;3.90;1.45;;;-2.80;99.90;;;;;;5070855;28;20131;-67
2021/12/25 09:30:57;;;;;;;8.60;1.85;;;-2.80;99.90;;;;;;5093881;28;20047;-66
2021/12/25 09:33:23;;;;;;;4.25;2.00;;;-2.70;99.90;;;;;;5094321;28;20051;-65
2021/12/25 09:35:49;;;;;;;27.35;11.30;;;-2.70;99.90;;;;;;5094586;28;20047;-65
2021/12/25 09:38:14;;;;;;;28.23;11.52;;;-2.60;99.90;;;;;;5105411;28;20051;-65
2021/12/25 09:40:40;;;;;;;40.70;15.82;;;-2.50;99.90;;;;;;5095302;28;20075;-67
2021/12/25 09:43:06;;;;;;;74.22;34.65;;;-2.50;99.90;;;;;;5094196;28;20050;-67
2021/12/25 09:45:31;;;;;;;23.35;12.63;;;-2.50;99.90;;;;;;5095009;28;20047;-67
2021/12/25 09:47:57;;;;;;;9.60;5.43;;;-2.50;99.90;;;;;;5094761;28;20048;-67
2021/12/25 09:50:23;;;;;;;7.40;2.80;;;-2.40;99.90;;;;;;5078205;28;20378;-66
2021/12/25 09:52:49;;;;;;;9.88;4.45;;;-2.40;99.90;;;;;;5085815;28;20035;-67
2021/12/25 09:55:15;;;;;;;4.30;1.35;;;-2.40;99.90;;;;;;5092078;28;20476;-66
2021/12/25 09:57:41;;;;;;;5.93;1.83;;;-2.40;99.90;;;;;;5091663;28;20047;-69
2021/12/25 10:00:16;;;;;;;4.82;1.42;;;-2.30;99.90;;;;;;5090164;28;20733;-65
2021/12/25 10:02:48;;;;;;;3.92;1.30;;;-2.30;99.90;;;;;;5075204;28;20082;-70
2021/12/25 10:05:30;;;;;;;4.50;1.52;;;-2.40;99.90;;;;;;5091696;28;20042;-67
2021/12/25 10:08:07;;;;;;;6.43;1.35;;;-2.10;99.90;;;;;;5092377;28;20052;-73
2021/12/25 10:10:49;;;;;;;4.40;1.60;;;-2.20;99.90;;;;;;5091839;28;20082;-68
2021/12/25 10:13:37;;;;;;;6.03;1.63;;;-2.20;99.90;;;;;;5092033;28;20506;-69
2021/12/25 10:16:27;;;;;;;40.42;15.30;;;-2.10;99.90;;;;;;5091609;28;20035;-69
2021/12/25 10:19:16;;;;;;;72.22;24.42;;;-2.10;99.90;;;;;;5091199;28;20128;-68
2021/12/25 10:21:41;;;;;;;71.78;22.73;;;0.00;99.90;;;;;;5092722;28;20154;-69
2021/12/25 10:24:24;;;;;;;98.00;30.88;;;-2.10;99.90;;;;;;5075377;28;20555;-68
2021/12/25 10:26:50;;;;;;;11.63;5.50;;;-2.00;99.90;;;;;;5090387;28;20062;-69
2021/12/25 10:29:25;;;;;;;6.65;3.63;;;-2.00;99.90;;;;;;5090568;28;20051;-68
2021/12/25 10:31:58;;;;;;;5.15;2.08;;;-2.00;99.90;;;;;;5088650;28;20036;-69
2021/12/25 10:34:29;;;;;;;8.30;2.10;;;-2.00;99.90;;;;;;5091963;28;20387;-68
2021/12/25 10:37:10;;;;;;;6.30;2.90;;;-2.00;99.90;;;;;;5091352;28;20066;-68
2021/12/25 10:39:36;;;;;;;4.00;1.10;;;;;;;;;;5090462;28;20096;-67
2021/12/25 10:42:11;;;;;;;8.85;2.72;;;-1.90;99.90;;;;;;5089012;28;20035;-67
2021/12/25 10:45:01;;;;;;;5.38;1.52;;;-1.00;99.90;;;;;;5081105;28;20044;-67
2021/12/25 10:47:31;;;;;;;8.30;1.70;;;-2.20;99.90;;;;;;5097451;28;20552;-67
2021/12/25 10:50:09;;;;;;;4.63;1.92;;;-1.80;99.90;;;;;;5098518;28;20102;-67
2021/12/25 10:52:42;;;;;;;3.53;1.35;;;-1.80;99.90;;;;;;5098525;28;20055;-67
2021/12/25 10:55:18;;;;;;;3.85;1.27;;;-1.90;99.90;;;;;;5096553;28;20052;-67
2021/12/25 10:57:49;;;;;;;3.97;1.10;;;-1.80;99.90;;;;;;5097945;28;20551;-72
2021/12/25 11:00:20;;;;;;;8.68;3.35;;;-1.80;99.90;;;;;;5096426;28;20035;-73
2021/12/25 11:03:02;;;;;;;8.38;3.42;;;-2.00;99.90;;;;;;5097975;28;20131;-71
2021/12/25 11:05:33;;;;;;;7.45;2.75;;;-1.80;99.90;;;;;;5097709;28;20043;-69
2021/12/25 11:08:12;;;;;;;4.95;1.55;;;-1.60;99.90;;;;;;5096510;28;20046;-72
2021/12/25 11:10:55;;;;;;;6.53;2.80;;;-1.80;99.90;;;;;;5092164;28;20043;-73
2021/12/25 11:13:32;;;;;;;4.90;1.23;;;-1.70;99.90;;;;;;5076912;28;20116;-73
2021/12/25 11:16:12;;;;;;;4.70;1.63;;;-1.70;99.90;;;;;;5080240;28;20047;-73
2021/12/25 11:19:27;;;;;;;5.85;1.80;;;;;;;;;;5098357;28;20500;-72
2021/12/25 11:21:47;;;;;;;5.18;1.33;;;;;;;;;;5096493;28;20545;-72
2021/12/25 11:24:18;;;;;;;4.30;1.40;;;;;;;;;;5132190;27;20072;-72
2021/12/25 11:26:46;;;;;;;3.13;1.30;;;;;;;;;;5097619;28;20496;-72
2021/12/25 11:29:13;;;;;;;4.80;1.40;;;;;;;;;;5080461;28;20461;-73
2021/12/25 11:31:40;;;;;;;3.03;1.08;;;;;;;;;;5093713;28;20132;-72
2021/12/25 11:34:07;;;;;;;4.03;0.88;;;;;;;;;;5094208;28;20048;-72
2021/12/25 11:36:36;;;;;;;2.97;0.90;;;;;;;;;;5075468;28;20561;-73
2021/12/25 11:39:05;;;;;;;3.45;1.13;;;;;;;;;;5092929;28;20051;-74
2021/12/25 11:41:31;;;;;;;4.70;0.93;;;-1.20;99.90;;;;;;5094280;28;20089;-72
2021/12/25 11:43:58;;;;;;;4.93;1.25;;;-1.10;99.90;;;;;;5068335;28;20367;-72
2021/12/25 11:46:39;;;;;;;4.70;1.52;;;-1.10;99.90;;;;;;5093464;28;20044;-73
2021/12/25 11:49:08;;;;;;;4.25;0.90;;;-0.90;99.90;;;;;;5080410;28;20051;-73
2021/12/25 11:51:34;;;;;;;6.25;2.15;;;-0.90;99.90;;;;;;5076878;28;20040;-73
2021/12/25 11:56:40;;;;;;;3.88;1.25;;;-1.30;99.90;;;;;;5089874;28;20105;-73
2021/12/25 11:59:14;;;;;;;5.18;1.30;;;-1.30;99.90;;;;;;5071864;28;20404;-73
2021/12/25 12:01:52;;;;;;;3.53;1.20;;;-1.00;99.90;;;;;;5090296;28;20090;-73
2021/12/25 12:04:18;;;;;;;3.97;1.15;;;-1.20;99.90;;;;;;5072921;28;20048;-73
2021/12/25 12:06:46;;;;;;;2.60;0.80;;;-1.20;99.90;;;;;;5090366;28;20043;-73
2021/12/25 12:09:13;;;;;;;2.63;0.98;;;-1.00;99.90;;;;;;5090140;28;20432;-73
2021/12/25 12:11:43;;;;;;;2.97;0.98;;;-0.80;99.90;;;;;;5086167;28;20083;-73
2021/12/25 12:14:16;;;;;;;5.80;1.73;;;-0.90;99.90;;;;;;5072328;28;20044;-73
2021/12/25 12:16:54;;;;;;;4.80;1.75;;;-0.90;99.90;;;;;;5090810;28;20040;-73
2021/12/25 12:22:22;;;;;;;3.30;1.08;;;-1.00;99.90;;;;;;5093340;28;20073;-73
2021/12/25 12:27:46;;;;;;;46.50;17.80;;;-0.80;99.90;;;;;;5090162;28;20050;-73
2021/12/25 12:30:32;;;;;;;38.38;15.73;;;-0.80;99.90;;;;;;5090803;28;20125;-80
2021/12/25 12:33:17;;;;;;;29.55;13.15;;;-1.10;99.90;;;;;;5057681;28;20048;-73
2021/12/25 12:35:46;;;;;;;15.77;7.20;;;-0.80;99.90;;;;;;5073230;28;20493;-72
2021/12/25 12:38:42;;;;;;;17.40;6.90;;;-1.10;99.90;;;;;;5072884;28;20401;-74
2021/12/25 12:41:20;;;;;;;3.45;1.35;;;-0.90;99.90;;;;;;5072683;28;20040;-73
2021/12/25 12:43:51;;;;;;;4.47;1.65;;;-1.00;99.90;;;;;;5072749;28;20040;-73
2021/12/25 12:46:16;;;;;;;7.43;3.50;;;-0.90;99.90;;;;;;5088557;28;20048;-73
2021/12/25 12:49:07;;;;;;;6.68;2.03;;;-0.90;99.90;;;;;;5089615;28;20043;-73
2021/12/25 12:51:34;;;;;;;3.13;1.65;;;-1.00;99.90;;;;;;5072662;28;20075;-73
2021/12/25 12:54:00;;;;;;;5.90;1.88;;;-0.90;99.90;;;;;;5088291;28;20044;-73
2021/12/25 12:56:26;;;;;;;5.20;1.75;;;-0.90;99.90;;;;;;5089452;28;20436;-73
2021/12/25 12:58:55;;;;;;;6.78;2.20;;;-1.10;99.90;;;;;;5072143;28;20032;-73
2021/12/25 13:01:21;;;;;;;5.88;2.58;;;-0.90;99.90;;;;;;5071689;28;20040;-73
2021/12/25 13:03:47;;;;;;;5.28;1.35;;;-0.90;99.90;;;;;;5071980;28;20044;-73
2021/12/25 13:06:15;;;;;;;4.93;1.50;;;-1.20;99.90;;;;;;5071903;28;20043;-75
2021/12/25 13:08:47;;;;;;;7.25;4.40;;;-1.00;99.90;;;;;;5054842;28;20040;-74
2021/12/25 13:11:21;;;;;;;8.30;3.05;;;-0.90;99.90;;;;;;5072315;28;20404;-73
2021/12/25 13:13:53;;;;;;;4.05;1.02;;;-0.90;99.90;;;;;;5088110;28;20051;-73
2021/12/25 13:16:23;;;;;;;7.75;3.72;;;-1.00;99.90;;;;;;5072133;28;20059;-73
2021/12/25 13:18:51;;;;;;;7.43;2.90;;;-0.90;99.90;;;;;;5088788;28;20048;-73
2021/12/25 13:21:29;;;;;;;4.10;1.92;;;-0.90;99.90;;;;;;5070843;28;20083;-73
2021/12/25 13:23:58;;;;;;;9.80;4.50;;;-0.80;99.90;;;;;;5055234;28;20110;-74
2021/12/25 13:26:37;;;;;;;18.52;6.35;;;-0.80;99.90;;;;;;5055090;28;20042;-73
2021/12/25 13:29:12;;;;;;;8.85;4.88;;;-0.90;99.90;;;;;;5087787;28;20078;-74
2021/12/25 13:31:40;;;;;;;9.63;5.50;;;-0.70;99.90;;;;;;5088757;28;20048;-73
2021/12/25 13:34:15;;;;;;;16.77;6.93;;;-0.80;99.90;;;;;;5088314;28;20314;-73
2021/12/25 13:36:45;;;;;;;25.27;13.27;;;-1.00;99.90;;;;;;5071053;28;20098;-73
2021/12/25 13:39:15;;;;;;;16.55;8.60;;;-0.90;99.90;;;;;;5055254;28;20102;-73
2021/12/25 13:41:47;;;;;;;12.65;7.70;;;-0.90;99.90;;;;;;5070886;28;20049;-74
2021/12/25 13:44:26;;;;;;;11.23;5.20;;;-1.30;99.90;;;;;;5088191;28;20032;-73
2021/12/25 13:46:58;;;;;;;15.63;11.10;;;-1.10;99.90;;;;;;5071538;28;20071;-73
2021/12/25 13:49:30;;;;;;;9.95;4.53;;;-1.20;99.90;;;;;;5053641;28;20040;-73
2021/12/25 13:52:05;;;;;;;8.63;3.85;;;-1.20;99.90;;;;;;5071284;28;20044;-73
2021/12/25 13:54:32;;;;;;;6.68;1.80;;;-1.20;99.90;;;;;;5071152;28;20047;-73
2021/12/25 13:56:58;;;;;;;9.95;3.70;;;-1.20;99.90;;;;;;5070362;28;20139;-72
2021/12/25 13:59:25;;;;;;;5.97;2.38;;;-1.30;99.90;;;;;;5087889;28;20047;-72
2021/12/25 14:02:08;;;;;;;4.13;1.50;;;-1.40;99.90;;;;;;5087904;28;20393;-71
2021/12/25 14:04:34;;;;;;;7.82;1.35;;;-1.40;99.90;;;;;;5099551;28;20032;-71
2021/12/25 14:07:01;;;;;;;4.00;1.50;;;-1.40;99.90;;;;;;5107457;27;20029;-72
2021/12/25 14:09:27;;;;;;;4.68;1.83;;;-1.40;99.90;;;;;;5102971;27;20078;-72
2021/12/25 14:11:55;;;;;;;9.43;4.10;;;-1.20;99.90;;;;;;5089618;28;20044;-72
2021/12/25 14:14:22;;;;;;;7.10;3.30;;;-1.40;99.90;;;;;;5090852;28;20092;-72
2021/12/25 14:16:49;;;;;;;15.02;6.25;;;-1.70;99.90;;;;;;5073318;28;20043;-73
2021/12/25 14:19:16;;;;;;;54.28;21.45;;;-1.40;99.90;;;;;;5077430;28;20123;-72
2021/12/25 14:22:03;;;;;;;30.60;13.38;;;-1.40;99.90;;;;;;5087983;28;20047;-72
2021/12/25 14:24:39;;;;;;;8.57;3.33;;;-1.50;99.90;;;;;;5087618;28;20044;-72
2021/12/25 14:27:15;;;;;;;6.03;3.38;;;-1.50;99.90;;;;;;5087243;28;20081;-72
2021/12/25 14:29:41;;;;;;;9.23;5.80;;;;;;;;;;5084611;28;20062;-71